sensor_id;sensor_type;location;lat;lon;timestamp;pressure;altitude;pressure_sealevel;temperature;humidity
61324;BME280;47203;48.428;11.974;2023-05-20T00:01:49;96834.09;;;16.87;49.42
61324;BME280;47203;48.428;11.974;2023-05-20T00:03:54;96839.69;;;16.86;49.56
61324;BME280;47203;48.428;11.974;2023-05-20T00:05:59;96827.78;;;16.83;49.55
61324;BME280;47203;48.428;11.974;2023-05-20T00:08:04;96836.56;;;16.84;49.59
61324;BME280;47203;48.428;11.974;2023-05-20T00:10:10;96830.72;;;16.82;49.40
61324;BME280;47203;48.428;11.974;2023-05-20T00:12:15;96828.38;;;16.80;49.66
61324;BME280;47203;48.428;11.974;2023-05-20T00:14:20;96828.69;;;16.79;49.75
61324;BME280;47203;48.428;11.974;2023-05-20T00:16:25;96824.44;;;16.78;49.89
61324;BME280;47203;48.428;11.974;2023-05-20T00:18:32;96823.97;;;16.75;50.23
61324;BME280;47203;48.428;11.974;2023-05-20T00:20:37;96816.78;;;16.76;50.01
61324;BME280;47203;48.428;11.974;2023-05-20T00:22:42;96818.97;;;16.74;50.11
61324;BME280;47203;48.428;11.974;2023-05-20T00:24:47;96816.31;;;16.74;49.85
61324;BME280;47203;48.428;11.974;2023-05-20T00:26:52;96826.94;;;16.74;50.13
61324;BME280;47203;48.428;11.974;2023-05-20T00:28:57;96821.91;;;16.72;50.26
61324;BME280;47203;48.428;11.974;2023-05-20T00:31:02;96829.91;;;16.72;50.16
61324;BME280;47203;48.428;11.974;2023-05-20T00:33:08;96820.63;;;16.70;50.08
61324;BME280;47203;48.428;11.974;2023-05-20T00:35:16;96819.06;;;16.69;50.16
61324;BME280;47203;48.428;11.974;2023-05-20T00:37:20;96825.19;;;16.69;50.06
61324;BME280;47203;48.428;11.974;2023-05-20T00:39:25;96818.28;;;16.68;50.29
61324;BME280;47203;48.428;11.974;2023-05-20T00:41:31;96825.78;;;16.66;50.04
61324;BME280;47203;48.428;11.974;2023-05-20T00:43:36;96821.53;;;16.65;49.81
61324;BME280;47203;48.428;11.974;2023-05-20T00:45:42;96823.72;;;16.63;49.72
61324;BME280;47203;48.428;11.974;2023-05-20T00:47:47;96828.53;;;16.61;49.85
61324;BME280;47203;48.428;11.974;2023-05-20T00:49:52;96823.53;;;16.60;49.97
61324;BME280;47203;48.428;11.974;2023-05-20T00:52:00;96824.91;;;16.57;50.23
61324;BME280;47203;48.428;11.974;2023-05-20T00:54:05;96821.00;;;16.54;49.95
61324;BME280;47203;48.428;11.974;2023-05-20T00:56:10;96825.50;;;16.54;50.22
61324;BME280;47203;48.428;11.974;2023-05-20T00:58:15;96821.31;;;16.53;50.16
61324;BME280;47203;48.428;11.974;2023-05-20T01:00:20;96822.69;;;16.50;50.25
61324;BME280;47203;48.428;11.974;2023-05-20T01:02:26;96823.28;;;16.47;50.40
61324;BME280;47203;48.428;11.974;2023-05-20T01:04:31;96820.13;;;16.45;50.28
61324;BME280;47203;48.428;11.974;2023-05-20T01:06:36;96826.53;;;16.44;50.39
61324;BME280;47203;48.428;11.974;2023-05-20T01:08:44;96821.50;;;16.43;50.53
61324;BME280;47203;48.428;11.974;2023-05-20T01:10:59;96816.00;;;16.39;50.79
61324;BME280;47203;48.428;11.974;2023-05-20T01:13:10;96816.31;;;16.37;50.56
61324;BME280;47203;48.428;11.974;2023-05-20T01:15:16;96806.47;;;16.38;50.42
61324;BME280;47203;48.428;11.974;2023-05-20T01:17:24;96812.88;;;16.37;50.55
61324;BME280;47203;48.428;11.974;2023-05-20T01:19:35;96813.19;;;16.35;50.61
61324;BME280;47203;48.428;11.974;2023-05-20T01:21:44;96809.72;;;16.35;50.58
61324;BME280;47203;48.428;11.974;2023-05-20T01:23:53;96807.66;;;16.32;50.80
61324;BME280;47203;48.428;11.974;2023-05-20T01:25:58;96805.31;;;16.30;50.53
61324;BME280;47203;48.428;11.974;2023-05-20T01:28:03;96809.03;;;16.29;50.50
61324;BME280;47203;48.428;11.974;2023-05-20T01:30:09;96803.25;;;16.27;50.32
61324;BME280;47203;48.428;11.974;2023-05-20T01:32:18;96798.53;;;16.24;50.21
61324;BME280;47203;48.428;11.974;2023-05-20T01:34:24;96802.28;;;16.23;50.53
61324;BME280;47203;48.428;11.974;2023-05-20T01:36:30;96796.78;;;16.19;50.35
61324;BME280;47203;48.428;11.974;2023-05-20T01:38:37;96800.00;;;16.16;50.61
61324;BME280;47203;48.428;11.974;2023-05-20T01:40:46;96801.41;;;16.14;50.32
61324;BME280;47203;48.428;11.974;2023-05-20T01:42:52;96795.59;;;16.12;50.51
61324;BME280;47203;48.428;11.974;2023-05-20T01:44:58;96798.56;;;16.10;50.45
61324;BME280;47203;48.428;11.974;2023-05-20T01:47:04;96794.06;;;16.11;50.53
61324;BME280;47203;48.428;11.974;2023-05-20T01:49:09;96791.69;;;16.09;50.84
61324;BME280;47203;48.428;11.974;2023-05-20T01:51:14;96790.13;;;16.08;50.53
61324;BME280;47203;48.428;11.974;2023-05-20T01:53:18;96797.28;;;16.08;50.60
61324;BME280;47203;48.428;11.974;2023-05-20T01:55:23;96793.06;;;16.07;50.55
61324;BME280;47203;48.428;11.974;2023-05-20T01:57:31;96792.56;;;16.04;50.75
61324;BME280;47203;48.428;11.974;2023-05-20T01:59:38;96804.28;;;16.03;50.42
61324;BME280;47203;48.428;11.974;2023-05-20T02:01:43;96798.47;;;16.01;50.51
61324;BME280;47203;48.428;11.974;2023-05-20T02:03:49;96795.81;;;16.01;50.65
61324;BME280;47203;48.428;11.974;2023-05-20T02:05:54;96792.69;;;15.99;50.65
61324;BME280;47203;48.428;11.974;2023-05-20T02:08:00;96793.75;;;15.98;50.76
61324;BME280;47203;48.428;11.974;2023-05-20T02:10:06;96786.09;;;15.97;50.85
61324;BME280;47203;48.428;11.974;2023-05-20T02:12:12;96775.47;;;15.97;51.03
61324;BME280;47203;48.428;11.974;2023-05-20T02:14:22;96780.31;;;15.95;51.11
61324;BME280;47203;48.428;11.974;2023-05-20T02:16:27;96784.81;;;15.94;50.93
61324;BME280;47203;48.428;11.974;2023-05-20T02:18:32;96781.38;;;15.94;50.93
61324;BME280;47203;48.428;11.974;2023-05-20T02:20:37;96775.28;;;15.93;50.69
61324;BME280;47203;48.428;11.974;2023-05-20T02:22:44;96778.53;;;15.90;50.94
61324;BME280;47203;48.428;11.974;2023-05-20T02:24:49;96771.66;;;15.89;51.00
61324;BME280;47203;48.428;11.974;2023-05-20T02:26:54;96773.50;;;15.88;50.81
61324;BME280;47203;48.428;11.974;2023-05-20T02:29:00;96773.03;;;15.86;51.05
61324;BME280;47203;48.428;11.974;2023-05-20T02:31:08;96771.75;;;15.84;51.27
61324;BME280;47203;48.428;11.974;2023-05-20T02:33:13;96774.41;;;15.84;51.13
61324;BME280;47203;48.428;11.974;2023-05-20T02:35:18;96768.31;;;15.83;51.22
61324;BME280;47203;48.428;11.974;2023-05-20T02:37:23;96765.97;;;15.82;51.05
61324;BME280;47203;48.428;11.974;2023-05-20T02:39:28;96769.69;;;15.81;51.22
61324;BME280;47203;48.428;11.974;2023-05-20T02:41:33;96769.69;;;15.81;51.33
61324;BME280;47203;48.428;11.974;2023-05-20T02:43:38;96770.75;;;15.80;51.31
61324;BME280;47203;48.428;11.974;2023-05-20T02:45:42;96773.41;;;15.80;51.41
61324;BME280;47203;48.428;11.974;2023-05-20T02:47:50;96773.72;;;15.78;51.62
61324;BME280;47203;48.428;11.974;2023-05-20T02:49:55;96777.94;;;15.79;51.52
61324;BME280;47203;48.428;11.974;2023-05-20T02:52:00;96777.94;;;15.79;51.21
61324;BME280;47203;48.428;11.974;2023-05-20T02:54:05;96771.06;;;15.78;51.35
61324;BME280;47203;48.428;11.974;2023-05-20T02:56:10;96766.81;;;15.77;51.43
61324;BME280;47203;48.428;11.974;2023-05-20T02:58:15;96775.84;;;15.76;51.50
61324;BME280;47203;48.428;11.974;2023-05-20T03:00:27;96756.81;;;15.74;51.14
61324;BME280;47203;48.428;11.974;2023-05-20T03:02:32;96760.84;;;15.71;51.44
61324;BME280;47203;48.428;11.974;2023-05-20T03:04:40;96762.69;;;15.71;51.58
61324;BME280;47203;48.428;11.974;2023-05-20T03:06:48;96762.97;;;15.69;51.30
61324;BME280;47203;48.428;11.974;2023-05-20T03:08:53;96763.28;;;15.68;51.50
61324;BME280;47203;48.428;11.974;2023-05-20T03:10:58;96769.38;;;15.68;51.25
61324;BME280;47203;48.428;11.974;2023-05-20T03:13:06;96763.28;;;15.68;51.79
61324;BME280;47203;48.428;11.974;2023-05-20T03:15:12;96770.47;;;15.67;51.56
61324;BME280;47203;48.428;11.974;2023-05-20T03:17:17;96771.53;;;15.66;51.58
61324;BME280;47203;48.428;11.974;2023-05-20T03:19:22;96768.88;;;15.66;51.55
61324;BME280;47203;48.428;11.974;2023-05-20T03:21:30;96763.88;;;15.65;52.06
61324;BME280;47203;48.428;11.974;2023-05-20T03:23:35;96769.19;;;15.65;51.82
61324;BME280;47203;48.428;11.974;2023-05-20T03:25:41;96783.53;;;15.64;51.66
61324;BME280;47203;48.428;11.974;2023-05-20T03:27:47;96770.28;;;15.64;51.90
61324;BME280;47203;48.428;11.974;2023-05-20T03:29:52;96772.94;;;15.64;51.59
61324;BME280;47203;48.428;11.974;2023-05-20T03:31:58;96783.03;;;15.62;51.48
61324;BME280;47203;48.428;11.974;2023-05-20T03:34:04;96777.72;;;15.62;51.74
61324;BME280;47203;48.428;11.974;2023-05-20T03:36:09;96778.81;;;15.61;51.93
61324;BME280;47203;48.428;11.974;2023-05-20T03:38:17;96776.44;;;15.59;51.66
61324;BME280;47203;48.428;11.974;2023-05-20T03:40:24;96787.84;;;15.60;51.88
61324;BME280;47203;48.428;11.974;2023-05-20T03:42:32;96774.59;;;15.60;51.62
61324;BME280;47203;48.428;11.974;2023-05-20T03:44:37;96784.09;;;15.61;51.80
61324;BME280;47203;48.428;11.974;2023-05-20T03:46:42;96781.44;;;15.61;51.88
61324;BME280;47203;48.428;11.974;2023-05-20T03:48:47;96783.34;;;15.60;51.76
61324;BME280;47203;48.428;11.974;2023-05-20T03:50:52;96784.91;;;15.61;52.05
61324;BME280;47203;48.428;11.974;2023-05-20T03:52:57;96783.34;;;15.60;51.89
61324;BME280;47203;48.428;11.974;2023-05-20T03:55:11;96774.91;;;15.58;52.44
61324;BME280;47203;48.428;11.974;2023-05-20T03:57:17;96780.19;;;15.58;52.20
61324;BME280;47203;48.428;11.974;2023-05-20T03:59:22;96782.84;;;15.58;52.19
61324;BME280;47203;48.428;11.974;2023-05-20T04:01:29;96782.84;;;15.58;52.27
61324;BME280;47203;48.428;11.974;2023-05-20T04:03:34;96781.75;;;15.59;52.52
61324;BME280;47203;48.428;11.974;2023-05-20T04:05:40;96779.91;;;15.60;52.41
61324;BME280;47203;48.428;11.974;2023-05-20T04:07:51;96782.56;;;15.60;52.55
61324;BME280;47203;48.428;11.974;2023-05-20T04:09:59;96771.94;;;15.60;52.56
61324;BME280;47203;48.428;11.974;2023-05-20T04:12:07;96767.41;;;15.60;52.91
61324;BME280;47203;48.428;11.974;2023-05-20T04:14:12;96785.69;;;15.62;52.95
61324;BME280;47203;48.428;11.974;2023-05-20T04:16:17;96782.75;;;15.63;52.68
61324;BME280;47203;48.428;11.974;2023-05-20T04:18:22;96792.75;;;15.66;53.06
61324;BME280;47203;48.428;11.974;2023-05-20T04:20:30;96789.03;;;15.67;53.02
61324;BME280;47203;48.428;11.974;2023-05-20T04:22:35;96791.09;;;15.70;53.27
61324;BME280;47203;48.428;11.974;2023-05-20T04:24:40;96794.25;;;15.73;53.34
61324;BME280;47203;48.428;11.974;2023-05-20T04:26:46;96786.78;;;15.75;53.40
61324;BME280;47203;48.428;11.974;2023-05-20T04:28:54;96787.25;;;15.77;53.59
61324;BME280;47203;48.428;11.974;2023-05-20T04:31:01;96789.34;;;15.80;53.70
61324;BME280;47203;48.428;11.974;2023-05-20T04:33:09;96787.50;;;15.80;53.79
61324;BME280;47203;48.428;11.974;2023-05-20T04:35:16;96776.88;;;15.80;53.74
61324;BME280;47203;48.428;11.974;2023-05-20T04:37:23;96781.88;;;15.82;53.66
61324;BME280;47203;48.428;11.974;2023-05-20T04:39:29;96777.34;;;15.82;53.68
61324;BME280;47203;48.428;11.974;2023-05-20T04:41:35;96776.56;;;15.82;53.64
61324;BME280;47203;48.428;11.974;2023-05-20T04:43:41;96781.59;;;15.83;53.95
61324;BME280;47203;48.428;11.974;2023-05-20T04:45:50;96770.19;;;15.83;54.32
61324;BME280;47203;48.428;11.974;2023-05-20T04:47:56;96778.63;;;15.85;54.06
61324;BME280;47203;48.428;11.974;2023-05-20T04:50:02;96774.91;;;15.86;53.89
61324;BME280;47203;48.428;11.974;2023-05-20T04:52:07;96778.81;;;15.88;54.00
61324;BME280;47203;48.428;11.974;2023-05-20T04:54:13;96775.09;;;15.90;54.06
61324;BME280;47203;48.428;11.974;2023-05-20T04:56:19;96779.31;;;15.91;54.25
61324;BME280;47203;48.428;11.974;2023-05-20T04:58:24;96775.28;;;15.93;54.39
61324;BME280;47203;48.428;11.974;2023-05-20T05:00:30;96781.09;;;15.95;54.24
61324;BME280;47203;48.428;11.974;2023-05-20T05:02:38;96775.47;;;15.97;54.73
61324;BME280;47203;48.428;11.974;2023-05-20T05:04:44;96774.09;;;15.99;54.77
61324;BME280;47203;48.428;11.974;2023-05-20T05:06:50;96770.06;;;16.02;54.53
61324;BME280;47203;48.428;11.974;2023-05-20T05:08:55;96767.91;;;16.04;54.86
61324;BME280;47203;48.428;11.974;2023-05-20T05:11:00;96766.53;;;16.07;54.96
61324;BME280;47203;48.428;11.974;2023-05-20T05:13:05;96770.44;;;16.09;55.19
61324;BME280;47203;48.428;11.974;2023-05-20T05:15:11;96762.66;;;16.13;54.96
61324;BME280;47203;48.428;11.974;2023-05-20T05:17:17;96770.81;;;16.16;54.91
61324;BME280;47203;48.428;11.974;2023-05-20T05:19:25;96765.22;;;16.18;55.38
61324;BME280;47203;48.428;11.974;2023-05-20T05:21:30;96766.47;;;16.20;55.16
61324;BME280;47203;48.428;11.974;2023-05-20T05:23:35;96764.03;;;16.24;55.41
61324;BME280;47203;48.428;11.974;2023-05-20T05:25:40;96767.16;;;16.26;55.61
61324;BME280;47203;48.428;11.974;2023-05-20T05:27:45;96770.00;;;16.30;55.48
61324;BME280;47203;48.428;11.974;2023-05-20T05:29:51;96759.56;;;16.33;55.35
61324;BME280;47203;48.428;11.974;2023-05-20T05:31:56;96759.75;;;16.37;55.31
61324;BME280;47203;48.428;11.974;2023-05-20T05:34:01;96760.22;;;16.39;55.57
61324;BME280;47203;48.428;11.974;2023-05-20T05:36:09;96755.38;;;16.41;55.68
61324;BME280;47203;48.428;11.974;2023-05-20T05:38:14;96765.91;;;16.46;55.52
61324;BME280;47203;48.428;11.974;2023-05-20T05:40:20;96761.88;;;16.49;55.67
61324;BME280;47203;48.428;11.974;2023-05-20T05:42:25;96762.03;;;16.52;55.84
61324;BME280;47203;48.428;11.974;2023-05-20T05:44:30;96761.44;;;16.55;55.72
61324;BME280;47203;48.428;11.974;2023-05-20T05:46:37;96759.75;;;16.60;55.64
61324;BME280;47203;48.428;11.974;2023-05-20T05:48:42;96756.50;;;16.63;56.14
61324;BME280;47203;48.428;11.974;2023-05-20T05:50:49;96761.50;;;16.64;55.79
61324;BME280;47203;48.428;11.974;2023-05-20T05:52:58;96758.53;;;16.66;56.20
61324;BME280;47203;48.428;11.974;2023-05-20T05:55:05;96761.41;;;16.69;55.95
61324;BME280;47203;48.428;11.974;2023-05-20T05:57:10;96755.47;;;16.72;56.27
61324;BME280;47203;48.428;11.974;2023-05-20T05:59:16;96756.75;;;16.75;56.09
61324;BME280;47203;48.428;11.974;2023-05-20T06:01:21;96768.31;;;16.79;56.22
61324;BME280;47203;48.428;11.974;2023-05-20T06:03:26;96766.16;;;16.81;55.87
61324;BME280;47203;48.428;11.974;2023-05-20T06:05:32;96758.66;;;16.83;55.74
61324;BME280;47203;48.428;11.974;2023-05-20T06:07:37;96752.25;;;16.84;55.78
61324;BME280;47203;48.428;11.974;2023-05-20T06:09:44;96753.53;;;16.87;55.83
61324;BME280;47203;48.428;11.974;2023-05-20T06:11:50;96764.38;;;16.90;56.09
61324;BME280;47203;48.428;11.974;2023-05-20T06:13:55;96761.91;;;16.94;55.96
61324;BME280;47203;48.428;11.974;2023-05-20T06:16:01;96760.00;;;16.95;55.99
61324;BME280;47203;48.428;11.974;2023-05-20T06:18:06;96758.63;;;16.97;55.51
61324;BME280;47203;48.428;11.974;2023-05-20T06:20:13;96756.13;;;17.01;55.76
61324;BME280;47203;48.428;11.974;2023-05-20T06:22:18;96756.63;;;17.03;55.75
61324;BME280;47203;48.428;11.974;2023-05-20T06:24:23;96756.03;;;17.06;55.66
61324;BME280;47203;48.428;11.974;2023-05-20T06:26:31;96749.63;;;17.07;56.03
61324;BME280;47203;48.428;11.974;2023-05-20T06:28:37;96750.56;;;17.11;55.58
61324;BME280;47203;48.428;11.974;2023-05-20T06:30:42;96749.16;;;17.14;55.56
61324;BME280;47203;48.428;11.974;2023-05-20T06:32:47;96739.81;;;17.16;55.74
61324;BME280;47203;48.428;11.974;2023-05-20T06:34:53;96742.63;;;17.20;55.81
61324;BME280;47203;48.428;11.974;2023-05-20T06:36:59;96739.34;;;17.23;55.65
61324;BME280;47203;48.428;11.974;2023-05-20T06:39:04;96731.09;;;17.24;55.70
61324;BME280;47203;48.428;11.974;2023-05-20T06:41:16;96741.88;;;17.28;55.76
61324;BME280;47203;48.428;11.974;2023-05-20T06:43:27;96741.25;;;17.31;55.51
61324;BME280;47203;48.428;11.974;2023-05-20T06:45:43;96735.31;;;17.34;55.62
61324;BME280;47203;48.428;11.974;2023-05-20T06:48:05;96740.34;;;17.36;55.76
61324;BME280;47203;48.428;11.974;2023-05-20T06:50:10;96745.03;;;17.39;55.54
61324;BME280;47203;48.428;11.974;2023-05-20T06:52:15;96751.31;;;17.43;55.44
61324;BME280;47203;48.428;11.974;2023-05-20T06:54:21;96739.59;;;17.44;55.22
61324;BME280;47203;48.428;11.974;2023-05-20T06:56:26;96740.56;;;17.48;55.55
61324;BME280;47203;48.428;11.974;2023-05-20T06:58:33;96740.25;;;17.50;55.46
61324;BME280;47203;48.428;11.974;2023-05-20T07:00:38;96739.31;;;17.54;55.55
61324;BME280;47203;48.428;11.974;2023-05-20T07:02:44;96737.63;;;17.58;55.38
61324;BME280;47203;48.428;11.974;2023-05-20T07:04:49;96742.31;;;17.61;55.33
61324;BME280;47203;48.428;11.974;2023-05-20T07:06:54;96741.38;;;17.66;55.54
61324;BME280;47203;48.428;11.974;2023-05-20T07:08:59;96741.56;;;17.70;55.65
61324;BME280;47203;48.428;11.974;2023-05-20T07:11:04;96731.84;;;17.74;55.79
61324;BME280;47203;48.428;11.974;2023-05-20T07:13:09;96740.00;;;17.77;55.49
61324;BME280;47203;48.428;11.974;2023-05-20T07:15:18;96727.66;;;17.82;55.53
61324;BME280;47203;48.428;11.974;2023-05-20T07:17:23;96732.03;;;17.86;55.72
61324;BME280;47203;48.428;11.974;2023-05-20T07:19:28;96734.56;;;17.91;55.24
61324;BME280;47203;48.428;11.974;2023-05-20T07:21:34;96737.41;;;17.95;55.24
61324;BME280;47203;48.428;11.974;2023-05-20T07:23:51;96729.56;;;17.99;55.38
61324;BME280;47203;48.428;11.974;2023-05-20T07:25:56;96733.19;;;18.03;54.99
61324;BME280;47203;48.428;11.974;2023-05-20T07:28:03;96731.47;;;18.07;55.08
61324;BME280;47203;48.428;11.974;2023-05-20T07:30:09;96730.53;;;18.11;54.95
61324;BME280;47203;48.428;11.974;2023-05-20T07:32:19;96732.56;;;18.14;55.39
61324;BME280;47203;48.428;11.974;2023-05-20T07:34:24;96715.94;;;18.18;54.90
61324;BME280;47203;48.428;11.974;2023-05-20T07:36:29;96715.81;;;18.23;55.14
61324;BME280;47203;48.428;11.974;2023-05-20T07:38:38;96709.06;;;18.25;55.00
61324;BME280;47203;48.428;11.974;2023-05-20T07:41:02;96710.63;;;18.26;55.01
61324;BME280;47203;48.428;11.974;2023-05-20T07:43:08;96719.25;;;18.32;55.07
61324;BME280;47203;48.428;11.974;2023-05-20T07:45:13;96709.84;;;18.35;55.12
61324;BME280;47203;48.428;11.974;2023-05-20T07:47:21;96705.78;;;18.37;55.25
61324;BME280;47203;48.428;11.974;2023-05-20T07:49:27;96705.91;;;18.41;54.88
61324;BME280;47203;48.428;11.974;2023-05-20T07:51:32;96713.75;;;18.46;54.94
61324;BME280;47203;48.428;11.974;2023-05-20T07:53:37;96715.47;;;18.51;55.17
61324;BME280;47203;48.428;11.974;2023-05-20T07:55:42;96712.63;;;18.56;54.97
61324;BME280;47203;48.428;11.974;2023-05-20T07:57:47;96713.25;;;18.61;55.30
61324;BME280;47203;48.428;11.974;2023-05-20T07:59:53;96706.19;;;18.65;55.36
61324;BME280;47203;48.428;11.974;2023-05-20T08:01:58;96700.41;;;18.72;55.22
61324;BME280;47203;48.428;11.974;2023-05-20T08:04:05;96699.88;;;18.79;55.22
61324;BME280;47203;48.428;11.974;2023-05-20T08:06:11;96705.84;;;18.84;54.96
61324;BME280;47203;48.428;11.974;2023-05-20T08:08:18;96699.25;;;18.91;54.67
61324;BME280;47203;48.428;11.974;2023-05-20T08:10:33;96707.56;;;18.98;54.59
61324;BME280;47203;48.428;11.974;2023-05-20T08:12:38;96705.97;;;19.06;54.83
61324;BME280;47203;48.428;11.974;2023-05-20T08:14:44;96699.34;;;19.12;54.75
61324;BME280;47203;48.428;11.974;2023-05-20T08:16:49;96702.75;;;19.21;54.31
61324;BME280;47203;48.428;11.974;2023-05-20T08:18:56;96706.19;;;19.30;54.75
61324;BME280;47203;48.428;11.974;2023-05-20T08:21:04;96697.34;;;19.39;54.39
61324;BME280;47203;48.428;11.974;2023-05-20T08:23:10;96697.31;;;19.47;54.12
61324;BME280;47203;48.428;11.974;2023-05-20T08:25:16;96706.53;;;19.59;53.98
61324;BME280;47203;48.428;11.974;2023-05-20T08:27:21;96689.69;;;19.67;53.44
61324;BME280;47203;48.428;11.974;2023-05-20T08:29:26;96685.81;;;19.77;53.79
61324;BME280;47203;48.428;11.974;2023-05-20T08:31:32;96683.94;;;19.86;53.54
61324;BME280;47203;48.428;11.974;2023-05-20T08:33:37;96689.31;;;19.98;53.38
61324;BME280;47203;48.428;11.974;2023-05-20T08:35:42;96682.34;;;20.06;53.41
61324;BME280;47203;48.428;11.974;2023-05-20T08:37:51;96675.06;;;20.15;53.21
61324;BME280;47203;48.428;11.974;2023-05-20T08:39:56;96683.78;;;20.25;53.54
61324;BME280;47203;48.428;11.974;2023-05-20T08:42:01;96678.03;;;20.35;53.55
61324;BME280;47203;48.428;11.974;2023-05-20T08:44:08;96681.53;;;20.48;53.12
61324;BME280;47203;48.428;11.974;2023-05-20T08:46:16;96682.69;;;20.59;53.11
61324;BME280;47203;48.428;11.974;2023-05-20T08:48:24;96675.03;;;20.70;52.75
61324;BME280;47203;48.428;11.974;2023-05-20T08:50:31;96675.38;;;20.81;53.01
61324;BME280;47203;48.428;11.974;2023-05-20T08:52:37;96675.28;;;20.89;52.65
61324;BME280;47203;48.428;11.974;2023-05-20T08:54:47;96686.78;;;21.02;53.01
61324;BME280;47203;48.428;11.974;2023-05-20T08:56:52;96674.53;;;21.14;52.81
61324;BME280;47203;48.428;11.974;2023-05-20T08:58:57;96677.56;;;21.24;52.12
61324;BME280;47203;48.428;11.974;2023-05-20T09:01:02;96680.13;;;21.33;51.96
61324;BME280;47203;48.428;11.974;2023-05-20T09:03:08;96685.34;;;21.42;51.91
61324;BME280;47203;48.428;11.974;2023-05-20T09:05:14;96676.00;;;21.48;51.47
61324;BME280;47203;48.428;11.974;2023-05-20T09:07:26;96684.16;;;21.52;50.77
61324;BME280;47203;48.428;11.974;2023-05-20T09:09:32;96688.97;;;21.58;50.77
61324;BME280;47203;48.428;11.974;2023-05-20T09:11:41;96674.56;;;21.63;50.35
61324;BME280;47203;48.428;11.974;2023-05-20T09:13:46;96675.44;;;21.67;50.07
61324;BME280;47203;48.428;11.974;2023-05-20T09:15:51;96675.19;;;21.72;50.36
61324;BME280;47203;48.428;11.974;2023-05-20T09:17:58;96665.38;;;21.76;49.77
61324;BME280;47203;48.428;11.974;2023-05-20T09:20:08;96662.47;;;21.82;49.80
61324;BME280;47203;48.428;11.974;2023-05-20T09:22:13;96668.34;;;21.87;49.89
61324;BME280;47203;48.428;11.974;2023-05-20T09:24:21;96660.88;;;21.93;49.47
61324;BME280;47203;48.428;11.974;2023-05-20T09:26:26;96673.25;;;21.97;49.15
61324;BME280;47203;48.428;11.974;2023-05-20T09:28:34;96666.09;;;22.02;49.01
61324;BME280;47203;48.428;11.974;2023-05-20T09:30:42;96668.88;;;22.05;49.12
61324;BME280;47203;48.428;11.974;2023-05-20T09:32:52;96665.19;;;22.10;48.75
61324;BME280;47203;48.428;11.974;2023-05-20T09:34:57;96674.44;;;22.12;48.91
61324;BME280;47203;48.428;11.974;2023-05-20T09:37:04;96672.97;;;22.15;48.13
61324;BME280;47203;48.428;11.974;2023-05-20T09:39:13;96680.34;;;22.18;48.06
61324;BME280;47203;48.428;11.974;2023-05-20T09:41:22;96683.13;;;22.22;47.99
61324;BME280;47203;48.428;11.974;2023-05-20T09:43:27;96677.41;;;22.23;48.08
61324;BME280;47203;48.428;11.974;2023-05-20T09:45:36;96680.09;;;22.23;47.60
61324;BME280;47203;48.428;11.974;2023-05-20T09:47:42;96678.97;;;22.24;48.10
61324;BME280;47203;48.428;11.974;2023-05-20T09:49:49;96675.19;;;22.25;47.84
61324;BME280;47203;48.428;11.974;2023-05-20T09:51:57;96669.81;;;22.25;47.47
61324;BME280;47203;48.428;11.974;2023-05-20T09:54:03;96683.66;;;22.27;47.45
61324;BME280;47203;48.428;11.974;2023-05-20T09:56:09;96661.09;;;22.28;47.44
61324;BME280;47203;48.428;11.974;2023-05-20T09:58:14;96655.38;;;22.30;47.57
61324;BME280;47203;48.428;11.974;2023-05-20T10:00:21;96661.66;;;22.34;47.00
61324;BME280;47203;48.428;11.974;2023-05-20T10:02:29;96656.38;;;22.38;47.07
61324;BME280;47203;48.428;11.974;2023-05-20T10:04:36;96647.41;;;22.46;47.14
61324;BME280;47203;48.428;11.974;2023-05-20T10:07:10;96645.34;;;22.55;46.92
61324;BME280;47203;48.428;11.974;2023-05-20T10:09:41;96643.72;;;22.66;47.53
61324;BME280;47203;48.428;11.974;2023-05-20T10:11:55;96644.09;;;22.81;47.40
61324;BME280;47203;48.428;11.974;2023-05-20T10:14:18;96649.00;;;22.95;47.42
61324;BME280;47203;48.428;11.974;2023-05-20T10:16:36;96650.13;;;23.10;47.24
61324;BME280;47203;48.428;11.974;2023-05-20T10:18:57;96648.94;;;23.23;46.91
61324;BME280;47203;48.428;11.974;2023-05-20T10:21:14;96649.25;;;23.38;46.21
61324;BME280;47203;48.428;11.974;2023-05-20T10:23:20;96649.91;;;23.50;46.47
61324;BME280;47203;48.428;11.974;2023-05-20T10:25:27;96644.44;;;23.63;46.09
61324;BME280;47203;48.428;11.974;2023-05-20T10:27:42;96630.50;;;23.77;45.83
61324;BME280;47203;48.428;11.974;2023-05-20T10:29:51;96645.41;;;23.90;46.22
61324;BME280;47203;48.428;11.974;2023-05-20T10:31:56;96642.94;;;24.01;45.66
61324;BME280;47203;48.428;11.974;2023-05-20T10:34:13;96632.75;;;24.10;44.77
61324;BME280;47203;48.428;11.974;2023-05-20T10:36:24;96635.94;;;24.16;44.56
61324;BME280;47203;48.428;11.974;2023-05-20T10:38:30;96641.00;;;24.21;44.84
61324;BME280;47203;48.428;11.974;2023-05-20T10:40:36;96654.53;;;24.25;44.73
61324;BME280;47203;48.428;11.974;2023-05-20T10:42:42;96633.38;;;24.23;44.17
61324;BME280;47203;48.428;11.974;2023-05-20T10:44:49;96635.63;;;24.21;44.30
61324;BME280;47203;48.428;11.974;2023-05-20T10:47:01;96644.75;;;24.16;43.80
61324;BME280;47203;48.428;11.974;2023-05-20T10:49:19;96625.03;;;24.09;43.31
61324;BME280;47203;48.428;11.974;2023-05-20T10:51:28;96622.22;;;24.01;43.82
61324;BME280;47203;48.428;11.974;2023-05-20T10:53:38;96625.47;;;23.91;42.95
61324;BME280;47203;48.428;11.974;2023-05-20T10:55:48;96641.78;;;23.82;43.13
61324;BME280;47203;48.428;11.974;2023-05-20T10:57:56;96625.09;;;23.73;43.29
61324;BME280;47203;48.428;11.974;2023-05-20T11:00:03;96630.22;;;23.62;43.04
61324;BME280;47203;48.428;11.974;2023-05-20T11:02:14;96635.00;;;23.53;43.56
61324;BME280;47203;48.428;11.974;2023-05-20T11:04:22;96639.47;;;23.45;43.30